Time;durP1;ratioP1;P1;durP2;ratioP2;P2;SDS_P1;SDS_P2;PMS_P1;PMS_P2;Temp;Humidity;BMP_temperature;BMP_pressure;BME280_temperature;BME280_humidity;BME280_pressure;Samples;Min_cycle;Max_cycle;Signal;HPM_P1;HPM_P2
2021/06/09 00:01:44;;;;;;;1.90;1.80;;;23.80;56.90;;;;;;5044045;28;20045;-56
2021/06/09 00:04:13;;;;;;;2.45;2.08;;;23.80;57.00;;;;;;5041831;28;20515;-55
2021/06/09 00:06:40;;;;;;;2.15;1.95;;;23.80;57.00;;;;;;5050714;28;20497;-56
2021/06/09 00:09:07;;;;;;;2.25;1.85;;;23.80;57.00;;;;;;5055674;28;20436;-56
2021/06/09 00:11:34;;;;;;;1.80;1.70;;;23.80;57.00;;;;;;5057035;28;20073;-55
2021/06/09 00:14:03;;;;;;;3.10;1.95;;;23.80;57.00;;;;;;5056888;28;20098;-54
2021/06/09 00:16:32;;;;;;;1.98;1.77;;;23.80;57.00;;;;;;5056471;28;20485;-54
2021/06/09 00:18:59;;;;;;;1.73;1.63;;;23.80;57.00;;;;;;5055476;28;20073;-56
2021/06/09 00:21:26;;;;;;;2.00;1.80;;;23.80;57.00;;;;;;5054273;28;20049;-53
2021/06/09 00:23:54;;;;;;;2.15;1.63;;;23.80;57.00;;;;;;5059446;28;20040;-56
2021/06/09 00:26:22;;;;;;;1.83;1.73;;;23.80;57.00;;;;;;5069236;28;20045;-56
2021/06/09 00:28:51;;;;;;;2.20;1.90;;;23.80;57.10;;;;;;5055312;28;20445;-56
2021/06/09 00:31:18;;;;;;;2.20;1.85;;;23.80;57.10;;;;;;5055210;28;20512;-55
2021/06/09 00:33:46;;;;;;;1.83;1.70;;;23.80;57.10;;;;;;5055416;28;20040;-54
2021/06/09 00:36:14;;;;;;;2.17;1.90;;;23.80;57.10;;;;;;5055144;28;20037;-55
2021/06/09 00:38:41;;;;;;;2.08;1.90;;;23.80;57.10;;;;;;5070270;28;20114;-53
2021/06/09 00:41:09;;;;;;;2.15;1.88;;;23.80;57.10;;;;;;5037819;28;20571;-55
2021/06/09 00:43:37;;;;;;;2.05;1.67;;;23.80;57.10;;;;;;5036271;28;20096;-55
2021/06/09 00:46:10;;;;;;;3.15;1.92;;;23.80;57.10;;;;;;5037481;28;20509;-54
2021/06/09 00:48:43;;;;;;;2.20;2.00;;;23.80;57.10;;;;;;5054625;28;20132;-52
2021/06/09 00:51:17;;;;;;;2.85;1.70;;;23.80;57.10;;;;;;5036941;28;20123;-56
2021/06/09 00:53:50;;;;;;;3.10;1.90;;;23.80;57.10;;;;;;5036735;28;20058;-53
2021/06/09 00:56:20;;;;;;;2.10;1.85;;;23.80;57.10;;;;;;5036617;28;20049;-53
2021/06/09 00:58:49;;;;;;;2.45;1.60;;;23.80;57.10;;;;;;5056272;28;20052;-52
2021/06/09 01:01:18;;;;;;;2.35;1.90;;;23.80;57.10;;;;;;5056340;28;20048;-53
2021/06/09 01:03:47;;;;;;;1.90;1.80;;;23.80;57.10;;;;;;5040846;28;20049;-56
2021/06/09 01:06:14;;;;;;;2.00;1.65;;;23.80;57.10;;;;;;5045704;28;20095;-53
2021/06/09 01:08:43;;;;;;;1.92;1.70;;;23.80;57.10;;;;;;5052450;28;20049;-54
2021/06/09 01:11:17;;;;;;;1.92;1.80;;;23.80;57.10;;;;;;5054719;28;20106;-53
2021/06/09 01:13:45;;;;;;;1.90;1.70;;;23.80;57.20;;;;;;5054791;28;20447;-56
2021/06/09 01:16:13;;;;;;;1.95;1.85;;;23.80;57.20;;;;;;5053627;28;20452;-55
2021/06/09 01:18:40;;;;;;;2.72;2.13;;;23.80;57.20;;;;;;5054309;28;20053;-54
2021/06/09 01:21:09;;;;;;;2.10;1.88;;;23.80;57.20;;;;;;5054581;28;20098;-54
2021/06/09 01:23:38;;;;;;;2.78;1.90;;;23.80;57.20;;;;;;5044061;28;20053;-56
2021/06/09 01:26:07;;;;;;;2.38;1.90;;;23.80;57.20;;;;;;5038149;28;20132;-54
2021/06/09 01:28:39;;;;;;;2.20;1.95;;;23.80;57.20;;;;;;5047410;28;20064;-54
2021/06/09 01:31:07;;;;;;;2.25;2.05;;;23.70;57.10;;;;;;5047725;28;20053;-55
2021/06/09 01:33:35;;;;;;;1.90;1.77;;;23.70;57.10;;;;;;5045920;28;20140;-54
2021/06/09 01:36:02;;;;;;;1.80;1.67;;;23.70;57.10;;;;;;5054072;28;20045;-55
2021/06/09 01:38:30;;;;;;;2.20;2.00;;;23.70;57.10;;;;;;5048988;28;20103;-54
2021/06/09 01:40:57;;;;;;;2.00;1.80;;;23.70;57.20;;;;;;5037880;28;20041;-53
2021/06/09 01:43:24;;;;;;;1.85;1.70;;;23.70;57.20;;;;;;5039107;28;20045;-56
2021/06/09 01:45:53;;;;;;;1.80;1.70;;;23.70;57.10;;;;;;5040921;28;20500;-56
2021/06/09 01:48:20;;;;;;;1.80;1.70;;;23.70;57.20;;;;;;5052265;28;20055;-53
2021/06/09 01:50:47;;;;;;;1.73;1.63;;;23.70;57.20;;;;;;5040478;28;20373;-56
2021/06/09 01:53:15;;;;;;;1.77;1.67;;;23.70;57.20;;;;;;5055626;28;20127;-56
2021/06/09 01:55:43;;;;;;;1.95;1.80;;;23.70;57.20;;;;;;5053679;28;20094;-55
2021/06/09 01:58:12;;;;;;;2.08;1.85;;;23.70;57.20;;;;;;5054892;28;20142;-53
2021/06/09 02:00:45;;;;;;;2.08;1.88;;;23.70;57.20;;;;;;5054374;28;20049;-53
2021/06/09 02:03:14;;;;;;;2.73;1.70;;;23.70;57.20;;;;;;5037329;28;20045;-53
2021/06/09 02:05:42;;;;;;;1.58;1.48;;;23.70;57.20;;;;;;5051762;28;20052;-56
2021/06/09 02:08:12;;;;;;;2.10;1.85;;;23.70;57.30;;;;;;5044151;28;20496;-53
2021/06/09 02:10:41;;;;;;;2.50;1.98;;;23.70;57.30;;;;;;5055551;28;20505;-55
2021/06/09 02:13:15;;;;;;;2.20;2.00;;;23.70;57.30;;;;;;5053758;28;20180;-51
2021/06/09 02:15:46;;;;;;;2.20;2.00;;;23.70;57.30;;;;;;5037043;28;20456;-53
2021/06/09 02:18:17;;;;;;;2.15;1.95;;;23.70;57.30;;;;;;5035642;28;20050;-54
2021/06/09 02:20:47;;;;;;;2.25;1.90;;;23.70;57.30;;;;;;5054147;28;20049;-54
2021/06/09 02:23:20;;;;;;;1.70;1.60;;;23.70;57.30;;;;;;5053682;28;20080;-53
2021/06/09 02:25:51;;;;;;;1.83;1.70;;;23.70;57.30;;;;;;5053433;28;20122;-52
2021/06/09 02:28:22;;;;;;;2.53;1.60;;;23.70;57.30;;;;;;5052997;28;20126;-55
2021/06/09 02:30:49;;;;;;;1.83;1.73;;;23.70;57.30;;;;;;5052965;28;20133;-54
2021/06/09 02:33:21;;;;;;;2.20;2.00;;;23.70;57.30;;;;;;5039380;28;20137;-52
2021/06/09 02:35:49;;;;;;;2.17;1.92;;;23.70;57.30;;;;;;5050122;28;20048;-53
2021/06/09 02:38:19;;;;;;;2.20;2.00;;;23.70;57.30;;;;;;5040557;28;20046;-55
2021/06/09 02:40:50;;;;;;;2.00;1.80;;;23.70;57.30;;;;;;5048659;28;20456;-53
2021/06/09 02:43:17;;;;;;;2.00;1.80;;;23.70;57.30;;;;;;5052849;28;20056;-56
2021/06/09 02:45:53;;;;;;;2.00;1.80;;;23.70;57.30;;;;;;5052937;28;20072;-56
2021/06/09 02:48:26;;;;;;;2.65;1.73;;;23.70;57.30;;;;;;5041916;28;20053;-54
2021/06/09 02:50:54;;;;;;;1.97;1.80;;;23.70;57.30;;;;;;5037275;28;20049;-55
2021/06/09 02:53:38;;;;;;;1.92;1.73;;;23.70;57.30;;;;;;5036242;28;20149;-56
2021/06/09 02:56:16;;;;;;;;;;;23.70;57.30;;;;;;5048260;28;20094;-56
2021/06/09 02:59:04;;;;;;;1.73;1.63;;;23.70;57.30;;;;;;5053474;28;19921;-55
2021/06/09 03:01:38;;;;;;;1.70;1.58;;;23.70;57.90;;;;;;5052405;28;20048;-55
2021/06/09 03:04:20;;;;;;;1.95;1.70;;;23.70;57.40;;;;;;5052413;28;20045;-55
2021/06/09 03:07:09;;;;;;;2.00;1.90;;;23.70;57.40;;;;;;5039972;28;20077;-55
2021/06/09 03:09:45;;;;;;;1.95;1.75;;;23.70;57.40;;;;;;5052582;28;20052;-54
2021/06/09 03:12:24;;;;;;;2.10;1.90;;;23.70;57.40;;;;;;5052774;28;20445;-55
2021/06/09 03:15:11;;;;;;;1.98;1.77;;;23.70;57.40;;;;;;5050242;28;20102;-54
2021/06/09 03:18:05;;;;;;;1.75;1.55;;;23.70;57.40;;;;;;5051868;28;20095;-55
2021/06/09 03:20:54;;;;;;;2.15;1.90;;;23.70;57.40;;;;;;5035776;28;20152;-56
2021/06/09 03:23:58;;;;;;;2.05;1.85;;;23.70;57.40;;;;;;5036067;28;20111;-50
2021/06/09 03:26:54;;;;;;;1.67;1.58;;;23.70;57.40;;;;;;5043493;28;20049;-51
2021/06/09 03:29:28;;;;;;;2.10;1.90;;;23.70;57.30;;;;;;5052235;28;20049;-55
2021/06/09 03:31:59;;;;;;;2.25;1.77;;;23.70;57.90;;;;;;5052005;28;20132;-52
2021/06/09 03:34:37;;;;;;;2.00;1.80;;;23.70;57.30;;;;;;5052365;28;20045;-56
2021/06/09 03:37:08;;;;;;;2.00;1.83;;;23.70;57.30;;;;;;5052028;28;20111;-53
2021/06/09 03:39:39;;;;;;;2.10;1.85;;;23.70;57.30;;;;;;5044293;28;20045;-54
2021/06/09 03:42:09;;;;;;;2.10;1.90;;;23.70;57.30;;;;;;5045137;28;20045;-53
2021/06/09 03:44:44;;;;;;;1.80;1.70;;;23.70;57.30;;;;;;5053362;28;20053;-55
2021/06/09 03:47:12;;;;;;;1.77;1.67;;;23.70;57.30;;;;;;5043112;28;20107;-54
2021/06/09 03:49:43;;;;;;;2.00;1.80;;;23.70;57.30;;;;;;5035461;28;20497;-54
2021/06/09 03:52:10;;;;;;;1.70;1.60;;;23.70;57.20;;;;;;5043743;28;20045;-55
2021/06/09 03:54:41;;;;;;;2.20;2.00;;;23.80;57.30;;;;;;5043452;28;20049;-54
2021/06/09 03:57:09;;;;;;;2.10;1.90;;;23.80;57.20;;;;;;5040957;28;20045;-53
2021/06/09 03:59:36;;;;;;;2.47;1.90;;;23.70;57.10;;;;;;5051947;28;20558;-49
2021/06/09 04:02:07;;;;;;;1.95;1.77;;;23.80;57.20;;;;;;5053154;28;20103;-51
2021/06/09 04:04:36;;;;;;;2.08;1.67;;;23.80;57.10;;;;;;5047265;28;20054;-52
2021/06/09 04:07:06;;;;;;;1.73;1.63;;;23.80;57.10;;;;;;5036595;28;20497;-53
2021/06/09 04:09:35;;;;;;;1.88;1.70;;;23.80;57.10;;;;;;5048694;28;20089;-51
2021/06/09 04:12:04;;;;;;;2.10;1.90;;;23.90;57.10;;;;;;5037928;28;20435;-57
2021/06/09 04:14:41;;;;;;;2.25;1.90;;;23.90;57.10;;;;;;5049765;28;20503;-55
2021/06/09 04:17:10;;;;;;;2.10;1.90;;;23.90;56.90;;;;;;5037490;28;20044;-55
2021/06/09 04:19:42;;;;;;;2.03;1.83;;;23.90;56.90;;;;;;5050068;28;20059;-54
2021/06/09 04:22:11;;;;;;;1.88;1.77;;;24.00;56.90;;;;;;5037054;28;20049;-53
2021/06/09 04:24:40;;;;;;;2.00;1.80;;;24.00;56.80;;;;;;5049653;28;20076;-54
2021/06/09 04:27:10;;;;;;;2.10;1.90;;;24.00;56.80;;;;;;5035101;28;20128;-55
2021/06/09 04:29:38;;;;;;;2.03;1.83;;;24.00;56.70;;;;;;5034174;28;20041;-54
2021/06/09 04:32:06;;;;;;;2.05;1.85;;;24.00;56.70;;;;;;5051288;28;20102;-52
2021/06/09 04:34:48;;;;;;;2.08;1.88;;;24.00;56.70;;;;;;5050639;28;20052;-55
2021/06/09 04:37:19;;;;;;;2.00;1.80;;;24.10;56.70;;;;;;5035331;28;20072;-53
2021/06/09 04:39:47;;;;;;;1.70;1.60;;;24.10;56.60;;;;;;5053454;28;20088;-53
2021/06/09 04:42:15;;;;;;;1.95;1.70;;;24.10;56.50;;;;;;5055588;28;20103;-56
2021/06/09 04:44:43;;;;;;;1.90;1.70;;;24.20;56.50;;;;;;5036921;28;20077;-54
2021/06/09 04:47:13;;;;;;;2.55;1.88;;;24.20;56.40;;;;;;5056262;28;20084;-52
2021/06/09 04:49:44;;;;;;;1.80;1.70;;;24.20;56.30;;;;;;5055319;28;20168;-52
2021/06/09 04:52:12;;;;;;;2.00;1.80;;;24.30;56.30;;;;;;5054871;28;20053;-54
2021/06/09 04:54:41;;;;;;;1.73;1.63;;;24.30;56.20;;;;;;5053580;28;20053;-49
2021/06/09 04:57:08;;;;;;;1.92;1.73;;;24.30;56.10;;;;;;5054674;28;20048;-53
2021/06/09 04:59:36;;;;;;;2.53;1.70;;;24.40;56.10;;;;;;5040018;28;20057;-55
2021/06/09 05:02:04;;;;;;;2.20;1.70;;;24.40;56.10;;;;;;5052176;28;20513;-51
2021/06/09 05:04:32;;;;;;;2.10;1.90;;;24.40;56.00;;;;;;5053466;28;20102;-55
2021/06/09 05:06:59;;;;;;;1.88;1.67;;;24.40;55.90;;;;;;5053696;28;20049;-55
2021/06/09 05:09:28;;;;;;;2.10;1.80;;;24.40;55.90;;;;;;5044103;28;20050;-54
2021/06/09 05:11:59;;;;;;;2.05;1.80;;;24.40;55.80;;;;;;5049182;28;20083;-56
2021/06/09 05:14:43;;;;;;;1.80;1.70;;;24.50;55.80;;;;;;5045338;28;20091;-55
2021/06/09 05:17:12;;;;;;;2.08;1.88;;;24.50;55.80;;;;;;5048355;28;20041;-55
2021/06/09 05:19:41;;;;;;;2.13;1.92;;;24.50;55.70;;;;;;5044574;28;20100;-57
2021/06/09 05:22:30;;;;;;;1.73;1.63;;;24.50;55.70;;;;;;5038241;28;20046;-54
2021/06/09 05:25:02;;;;;;;3.10;1.80;;;24.60;55.70;;;;;;5049086;28;20095;-56
2021/06/09 05:27:30;;;;;;;1.92;1.77;;;24.60;55.60;;;;;;5044877;28;20553;-54
2021/06/09 05:29:59;;;;;;;2.00;1.90;;;24.60;55.50;;;;;;5047881;28;20041;-54
2021/06/09 05:32:29;;;;;;;2.30;1.70;;;24.60;55.50;;;;;;5055456;28;20047;-54
2021/06/09 05:34:57;;;;;;;3.03;2.00;;;24.70;55.50;;;;;;5063112;28;20040;-56
2021/06/09 05:37:25;;;;;;;2.33;2.10;;;24.70;55.40;;;;;;5061214;28;20041;-55
2021/06/09 05:39:58;;;;;;;2.72;1.52;;;24.70;55.30;;;;;;5054200;28;20103;-56
2021/06/09 05:42:26;;;;;;;1.80;1.70;;;24.70;55.30;;;;;;5053851;28;20045;-53
2021/06/09 05:44:54;;;;;;;2.15;1.90;;;24.70;55.30;;;;;;5053735;28;20106;-51
2021/06/09 05:47:22;;;;;;;2.30;1.77;;;24.70;55.20;;;;;;5053820;28;20110;-55
2021/06/09 05:50:09;;;;;;;2.33;2.13;;;24.70;55.20;;;;;;5053769;28;20084;-50
2021/06/09 05:52:36;;;;;;;2.15;1.95;;;24.70;55.20;;;;;;5053708;28;20555;-54
2021/06/09 05:55:05;;;;;;;1.90;1.80;;;24.80;55.30;;;;;;5049510;28;20045;-55
2021/06/09 05:57:33;;;;;;;2.20;2.00;;;24.80;55.30;;;;;;5042331;28;20505;-56
2021/06/09 06:00:00;;;;;;;2.05;1.80;;;24.80;55.20;;;;;;5054682;28;20045;-56
2021/06/09 06:02:28;;;;;;;2.20;2.00;;;24.80;55.20;;;;;;5053392;28;20049;-55
2021/06/09 06:04:57;;;;;;;1.98;1.77;;;24.80;55.20;;;;;;5052453;28;20041;-55
2021/06/09 06:07:25;;;;;;;2.28;2.08;;;24.80;55.20;;;;;;5047274;28;20099;-56
2021/06/09 06:09:53;;;;;;;2.00;1.80;;;24.80;55.20;;;;;;5037167;28;20045;-55
2021/06/09 06:12:27;;;;;;;2.28;2.08;;;24.80;55.20;;;;;;5053745;28;20119;-56
2021/06/09 06:14:55;;;;;;;1.80;1.60;;;24.80;55.10;;;;;;5037046;28;20124;-53
2021/06/09 06:17:22;;;;;;;2.28;2.08;;;24.80;55.10;;;;;;5035618;28;20091;-57
2021/06/09 06:19:50;;;;;;;2.05;1.80;;;24.80;55.10;;;;;;5036008;28;20049;-55
2021/06/09 06:22:19;;;;;;;2.22;2.03;;;24.80;55.10;;;;;;5054042;28;20041;-56
2021/06/09 06:24:49;;;;;;;2.53;2.33;;;24.80;55.10;;;;;;5053092;28;20080;-57
2021/06/09 06:27:19;;;;;;;1.95;1.75;;;24.80;55.10;;;;;;5035114;28;20558;-57
2021/06/09 06:29:46;;;;;;;2.30;2.05;;;24.80;55.10;;;;;;5049226;28;20076;-55
2021/06/09 06:32:15;;;;;;;2.10;1.90;;;24.80;55.10;;;;;;5053292;28;20052;-52
2021/06/09 06:34:50;;;;;;;2.95;1.98;;;24.80;55.10;;;;;;5054320;28;20076;-56
2021/06/09 06:37:20;;;;;;;2.20;2.00;;;24.80;55.10;;;;;;5053067;28;20041;-57
2021/06/09 06:39:51;;;;;;;2.25;1.98;;;24.80;55.10;;;;;;5038966;28;20052;-55
2021/06/09 06:42:19;;;;;;;2.45;1.80;;;24.80;55.10;;;;;;5036662;28;20045;-54
2021/06/09 06:44:47;;;;;;;2.15;1.95;;;24.80;55.10;;;;;;5036681;28;20053;-56
2021/06/09 06:47:18;;;;;;;1.90;1.80;;;24.80;55.10;;;;;;5063117;28;20049;-54
2021/06/09 06:49:47;;;;;;;2.25;2.03;;;24.80;55.10;;;;;;5041554;28;20090;-56
2021/06/09 06:52:14;;;;;;;2.10;1.95;;;24.80;55.10;;;;;;5048864;28;20045;-53
2021/06/09 06:54:41;;;;;;;2.70;2.30;;;24.80;55.10;;;;;;5042943;28;20053;-53
2021/06/09 06:57:09;;;;;;;1.98;1.88;;;24.80;55.10;;;;;;5046364;28;20073;-54
2021/06/09 06:59:37;;;;;;;2.00;1.80;;;24.80;55.10;;;;;;5051086;28;20533;-55
2021/06/09 07:02:06;;;;;;;2.38;2.17;;;24.80;55.00;;;;;;5052478;28;20416;-56
2021/06/09 07:04:35;;;;;;;1.90;1.70;;;24.80;55.10;;;;;;5053531;28;20049;-56
2021/06/09 07:07:03;;;;;;;2.10;1.95;;;24.80;55.10;;;;;;5048549;28;20048;-54
2021/06/09 07:09:30;;;;;;;2.25;2.00;;;24.70;55.00;;;;;;5047031;28;20045;-58
2021/06/09 07:11:57;;;;;;;2.35;2.15;;;24.80;55.00;;;;;;5038926;28;20546;-55
2021/06/09 07:14:28;;;;;;;2.15;1.95;;;24.80;55.00;;;;;;5052142;28;20043;-55
2021/06/09 07:16:57;;;;;;;2.00;1.80;;;24.80;55.00;;;;;;5048984;28;20096;-54
2021/06/09 07:19:25;;;;;;;2.72;2.10;;;24.80;55.00;;;;;;5035703;28;20071;-54
2021/06/09 07:22:11;;;;;;;1.92;1.80;;;24.80;55.00;;;;;;5035818;28;20099;-55
2021/06/09 07:24:38;;;;;;;2.20;2.00;;;24.80;55.00;;;;;;5038796;28;20496;-52
2021/06/09 07:27:07;;;;;;;2.15;1.95;;;24.80;55.00;;;;;;5052312;28;20126;-51
2021/06/09 07:29:37;;;;;;;2.58;2.10;;;24.80;55.00;;;;;;5050408;28;20049;-57
2021/06/09 07:32:08;;;;;;;2.20;2.00;;;24.80;54.90;;;;;;5037033;28;20041;-50
2021/06/09 07:34:35;;;;;;;2.38;2.15;;;24.80;54.90;;;;;;5051873;28;20049;-55
2021/06/09 07:37:10;;;;;;;2.78;2.05;;;24.80;54.90;;;;;;5052118;28;20041;-58
2021/06/09 07:39:58;;;;;;;2.50;2.28;;;24.80;54.90;;;;;;5035498;28;20079;-56
2021/06/09 07:42:27;;;;;;;2.45;2.25;;;24.80;54.90;;;;;;5038268;28;20098;-56
2021/06/09 07:45:06;;;;;;;2.53;2.33;;;24.80;54.90;;;;;;5052136;28;20094;-56
2021/06/09 07:47:35;;;;;;;2.38;2.17;;;24.90;55.00;;;;;;5039063;28;20048;-57
2021/06/09 07:50:06;;;;;;;2.30;2.10;;;24.90;54.90;;;;;;5051942;28;20045;-56
2021/06/09 07:52:36;;;;;;;2.35;2.15;;;24.90;55.00;;;;;;5050784;28;20045;-56
2021/06/09 07:55:05;;;;;;;2.10;1.90;;;24.90;54.90;;;;;;5052727;28;20045;-55
2021/06/09 07:57:36;;;;;;;1.85;1.75;;;24.90;54.90;;;;;;5051996;28;20114;-56
2021/06/09 08:00:06;;;;;;;3.50;1.88;;;24.90;54.90;;;;;;5034132;28;20091;-54
2021/06/09 08:02:35;;;;;;;2.67;2.03;;;24.90;54.80;;;;;;5051559;28;20049;-55
2021/06/09 08:05:04;;;;;;;2.47;1.90;;;24.90;54.80;;;;;;5050878;28;20056;-53
2021/06/09 08:07:31;;;;;;;1.85;1.75;;;24.90;54.80;;;;;;5049584;28;20555;-51
2021/06/09 08:10:00;;;;;;;2.55;2.15;;;24.90;54.80;;;;;;5052050;28;20045;-53
2021/06/09 08:12:27;;;;;;;2.45;2.25;;;24.90;54.80;;;;;;5052065;28;20045;-54
2021/06/09 08:14:54;;;;;;;2.40;2.20;;;24.90;54.80;;;;;;5054218;28;20128;-51
2021/06/09 08:17:22;;;;;;;2.20;2.00;;;24.90;54.80;;;;;;5039715;28;20173;-55
2021/06/09 08:19:49;;;;;;;2.55;2.35;;;24.90;54.80;;;;;;5040518;28;20107;-55
2021/06/09 08:22:16;;;;;;;2.20;2.00;;;24.90;54.80;;;;;;5053241;28;20455;-53
2021/06/09 08:24:44;;;;;;;2.53;2.13;;;24.90;54.80;;;;;;5056393;28;20170;-55
2021/06/09 08:27:11;;;;;;;2.25;2.03;;;24.90;54.80;;;;;;5044445;28;20072;-53
2021/06/09 08:29:38;;;;;;;1.98;1.75;;;24.90;54.70;;;;;;5040071;28;20049;-52
2021/06/09 08:32:06;;;;;;;2.50;1.92;;;24.90;54.70;;;;;;5049060;28;20041;-54
2021/06/09 08:34:34;;;;;;;3.17;2.22;;;24.90;54.70;;;;;;5046452;28;20497;-52
2021/06/09 08:37:03;;;;;;;2.20;2.00;;;24.90;54.70;;;;;;5047692;28;20049;-53
2021/06/09 08:39:31;;;;;;;2.17;1.98;;;24.90;54.70;;;;;;5056350;28;20049;-53
2021/06/09 08:42:02;;;;;;;2.05;1.85;;;24.90;54.70;;;;;;5054256;28;20126;-57
2021/06/09 08:44:34;;;;;;;2.20;1.98;;;24.90;54.70;;;;;;5061305;28;20389;-55
2021/06/09 08:47:03;;;;;;;2.28;1.98;;;24.90;54.70;;;;;;5058253;28;20045;-55
2021/06/09 08:49:33;;;;;;;2.20;2.00;;;24.90;54.80;;;;;;5043640;28;20045;-56
2021/06/09 08:52:02;;;;;;;2.15;1.90;;;25.00;54.80;;;;;;5050849;28;20053;-53
2021/06/09 08:54:31;;;;;;;2.17;1.80;;;25.00;54.80;;;;;;5039583;28;20050;-56
2021/06/09 08:56:58;;;;;;;2.22;2.03;;;25.00;54.80;;;;;;5047341;28;20048;-55
2021/06/09 08:59:25;;;;;;;2.40;2.13;;;25.00;54.80;;;;;;5065471;28;20115;-54
2021/06/09 09:01:52;;;;;;;2.38;2.17;;;24.90;54.70;;;;;;5041415;28;20048;-52
2021/06/09 09:04:20;;;;;;;2.30;2.05;;;25.00;54.80;;;;;;5054730;28;20078;-51
2021/06/09 09:06:48;;;;;;;2.15;1.98;;;25.00;54.80;;;;;;5054022;28;20071;-56
2021/06/09 09:09:15;;;;;;;2.00;1.80;;;25.00;54.80;;;;;;5055771;28;20114;-51
2021/06/09 09:11:42;;;;;;;2.45;2.25;;;25.00;54.80;;;;;;5054385;28;20500;-54
2021/06/09 09:14:10;;;;;;;2.10;1.90;;;25.00;54.80;;;;;;5054777;28;20457;-53
2021/06/09 09:16:40;;;;;;;1.77;1.67;;;25.00;54.80;;;;;;5053513;28;20049;-56
2021/06/09 09:19:14;;;;;;;2.25;1.95;;;25.00;54.80;;;;;;5037696;28;20041;-57
2021/06/09 09:21:43;;;;;;;2.20;2.00;;;25.00;54.80;;;;;;5037070;28;20115;-53
2021/06/09 09:24:14;;;;;;;2.28;2.08;;;25.00;54.70;;;;;;5053102;28;20087;-55
2021/06/09 09:26:50;;;;;;;2.15;1.95;;;25.00;54.70;;;;;;5054056;28;20052;-54
2021/06/09 09:29:20;;;;;;;2.30;1.95;;;25.00;54.80;;;;;;5038263;28;20057;-54
2021/06/09 09:31:57;;;;;;;2.28;2.00;;;25.00;54.80;;;;;;5053879;28;20049;-54
2021/06/09 09:34:37;;;;;;;3.00;2.33;;;25.00;54.70;;;;;;5039055;28;20049;-55
2021/06/09 09:37:09;;;;;;;2.30;2.10;;;25.00;54.70;;;;;;5053545;28;20053;-55
2021/06/09 09:39:41;;;;;;;2.20;2.00;;;25.00;54.80;;;;;;5037832;28;20452;-55
2021/06/09 09:42:22;;;;;;;1.70;1.60;;;25.00;54.80;;;;;;5036705;28;20050;-54
2021/06/09 09:44:49;;;;;;;2.15;1.95;;;25.00;54.80;;;;;;5038283;28;20107;-52
2021/06/09 09:47:24;;;;;;;2.55;1.95;;;25.00;54.80;;;;;;5052877;28;20052;-55
2021/06/09 09:49:52;;;;;;;2.33;2.13;;;25.00;54.80;;;;;;5054019;28;20048;-54
2021/06/09 09:52:20;;;;;;;2.60;2.30;;;25.00;54.80;;;;;;5054715;28;20055;-54
2021/06/09 09:55:05;;;;;;;2.25;2.05;;;25.00;54.80;;;;;;5072477;28;20060;-56
2021/06/09 09:57:36;;;;;;;2.42;2.10;;;25.00;54.80;;;;;;5053749;28;20045;-51
2021/06/09 10:00:06;;;;;;;2.30;2.10;;;25.00;54.80;;;;;;5052214;28;20045;-55
2021/06/09 10:02:33;;;;;;;1.90;1.80;;;25.00;54.70;;;;;;5070508;28;20049;-53
2021/06/09 10:05:12;;;;;;;2.47;1.88;;;25.00;54.80;;;;;;5055228;28;20568;-53
2021/06/09 10:07:39;;;;;;;2.60;2.40;;;25.00;55.30;;;;;;5043151;28;20060;-53
2021/06/09 10:10:22;;;;;;;2.30;2.10;;;25.00;54.80;;;;;;5053733;28;20444;-54
2021/06/09 10:13:15;;;;;;;2.40;2.20;;;25.00;54.80;;;;;;5052146;28;20091;-54
2021/06/09 10:15:51;;;;;;;3.10;2.80;;;25.00;54.80;;;;;;5053051;28;20451;-54
2021/06/09 10:18:27;;;;;;;2.47;2.28;;;25.00;54.70;;;;;;5053537;28;20044;-51
2021/06/09 10:20:56;;;;;;;3.67;3.25;;;25.00;54.80;;;;;;5053275;28;20041;-54
2021/06/09 10:23:38;;;;;;;4.40;3.45;;;25.00;54.70;;;;;;5052335;28;20124;-51
2021/06/09 10:26:12;;;;;;;4.15;3.47;;;25.00;54.70;;;;;;5052779;28;20096;-53
2021/06/09 10:29:06;;;;;;;4.43;4.03;;;25.00;55.30;;;;;;5052553;28;20409;-55
2021/06/09 10:31:40;;;;;;;4.38;3.97;;;25.00;54.70;;;;;;5053176;28;20412;-53
2021/06/09 10:34:07;;;;;;;4.57;4.18;;;25.00;54.70;;;;;;5037262;28;20566;-57
2021/06/09 10:36:40;;;;;;;4.90;4.43;;;25.00;54.70;;;;;;5053252;28;20041;-54
2021/06/09 10:39:08;;;;;;;5.72;5.22;;;25.00;54.70;;;;;;5036344;28;20052;-57
2021/06/09 10:41:39;;;;;;;4.88;4.38;;;25.00;54.70;;;;;;5054156;28;20049;-56
2021/06/09 10:44:07;;;;;;;5.32;4.82;;;25.00;54.60;;;;;;5036534;28;20096;-57
2021/06/09 10:46:39;;;;;;;6.32;5.72;;;25.00;54.60;;;;;;5053140;28;20077;-55
2021/06/09 10:49:08;;;;;;;6.30;5.70;;;25.00;54.60;;;;;;5051703;28;20049;-55
2021/06/09 10:51:36;;;;;;;5.53;5.03;;;25.00;54.60;;;;;;5050557;28;20455;-55
2021/06/09 10:54:10;;;;;;;7.82;7.05;;;25.00;54.60;;;;;;5053792;28;20061;-51
2021/06/09 10:56:46;;;;;;;9.60;8.60;;;25.00;54.60;;;;;;5052822;28;20467;-55
2021/06/09 10:59:18;;;;;;;9.98;8.70;;;25.10;54.60;;;;;;5052048;28;20094;-53
2021/06/09 11:01:46;;;;;;;8.93;6.60;;;25.10;54.60;;;;;;5052697;28;20053;-55
2021/06/09 11:04:14;;;;;;;9.65;8.65;;;25.10;54.60;;;;;;5052597;28;20389;-53
2021/06/09 11:06:46;;;;;;;8.50;7.07;;;25.10;54.50;;;;;;5051660;28;20049;-56
2021/06/09 11:09:16;;;;;;;9.57;7.97;;;25.10;54.60;;;;;;5052105;28;20048;-54
2021/06/09 11:11:45;;;;;;;16.63;11.25;;;25.10;54.50;;;;;;5051994;28;20077;-56
2021/06/09 11:14:21;;;;;;;13.02;11.70;;;25.10;54.50;;;;;;5052211;28;20048;-53
2021/06/09 11:16:51;;;;;;;13.77;11.23;;;25.10;54.50;;;;;;5038507;28;20100;-54
2021/06/09 11:19:45;;;;;;;12.98;11.18;;;25.10;54.50;;;;;;5036226;28;20046;-57
2021/06/09 11:22:25;;;;;;;11.45;10.30;;;25.20;54.50;;;;;;5036035;28;20045;-55
2021/06/09 11:25:19;;;;;;;12.35;11.15;;;25.20;54.40;;;;;;5052241;28;20095;-56
2021/06/09 11:27:59;;;;;;;13.93;11.95;;;25.20;54.30;;;;;;5033537;28;20417;-54
2021/06/09 11:30:27;;;;;;;14.05;12.55;;;25.30;54.20;;;;;;5036336;28;20559;-55
2021/06/09 11:33:00;;;;;;;13.63;12.23;;;25.30;54.10;;;;;;5035533;28;20041;-52
2021/06/09 11:35:48;;;;;;;13.35;11.90;;;25.40;54.10;;;;;;5034708;28;20081;-54
2021/06/09 11:38:27;;;;;;;11.57;10.38;;;25.50;53.80;;;;;;5051270;28;20125;-54
2021/06/09 11:40:57;;;;;;;11.25;10.13;;;25.60;53.70;;;;;;5052923;28;20049;-55
2021/06/09 11:43:30;;;;;;;12.68;11.38;;;25.60;53.50;;;;;;5052861;28;20091;-56
2021/06/09 11:46:03;;;;;;;12.10;10.88;;;25.70;53.40;;;;;;5050844;28;20072;-57
2021/06/09 11:48:32;;;;;;;12.15;10.95;;;25.70;53.20;;;;;;5051402;28;20068;-53
2021/06/09 11:51:21;;;;;;;12.65;11.35;;;25.70;53.20;;;;;;5037822;28;20076;-54
2021/06/09 11:53:52;;;;;;;16.20;12.73;;;25.80;53.20;;;;;;5040718;28;20495;-54
2021/06/09 11:56:38;;;;;;;12.55;11.35;;;25.70;53.10;;;;;;5041192;28;20048;-57
2021/06/09 11:59:08;;;;;;;13.30;11.90;;;25.80;53.10;;;;;;5054807;28;20045;-56
2021/06/09 12:01:39;;;;;;;13.57;11.93;;;25.80;53.10;;;;;;5055895;28;20548;-54
2021/06/09 12:04:22;;;;;;;12.57;11.38;;;25.80;53.10;;;;;;5056848;28;20408;-58
2021/06/09 12:06:59;;;;;;;13.70;12.30;;;25.70;53.10;;;;;;5049003;28;20045;-56
2021/06/09 12:09:37;;;;;;;12.73;11.48;;;25.70;53.10;;;;;;5056675;28;20045;-53
2021/06/09 12:12:10;;;;;;;13.13;11.73;;;25.70;53.10;;;;;;5055631;28;20073;-55
2021/06/09 12:14:40;;;;;;;13.30;11.68;;;25.70;53.20;;;;;;5056007;28;20049;-55
2021/06/09 12:17:10;;;;;;;13.70;12.40;;;25.70;53.20;;;;;;5055547;28;20045;-57
2021/06/09 12:19:43;;;;;;;13.68;12.20;;;25.60;53.30;;;;;;5055443;28;20041;-55
2021/06/09 12:22:14;;;;;;;13.27;11.98;;;25.60;53.40;;;;;;5052719;28;20168;-57
2021/06/09 12:24:42;;;;;;;12.82;11.52;;;25.60;53.50;;;;;;5040551;28;20084;-55
2021/06/09 12:27:13;;;;;;;13.07;11.85;;;25.50;53.50;;;;;;5040138;28;20051;-56
2021/06/09 12:29:42;;;;;;;13.38;12.07;;;25.50;53.60;;;;;;5040239;28;20148;-53
2021/06/09 12:32:36;;;;;;;13.68;12.38;;;25.50;53.60;;;;;;5040013;28;20049;-54
2021/06/09 12:35:09;;;;;;;13.70;12.18;;;25.50;53.70;;;;;;5043485;28;20115;-55
2021/06/09 12:37:42;;;;;;;13.32;12.02;;;25.40;53.70;;;;;;5056569;28;20051;-51
2021/06/09 12:40:23;;;;;;;14.80;12.35;;;25.40;53.80;;;;;;5055498;28;20115;-51
2021/06/09 12:42:52;;;;;;;13.13;11.82;;;25.50;53.90;;;;;;5054084;28;20048;-51
2021/06/09 12:45:23;;;;;;;13.45;12.05;;;25.40;53.80;;;;;;5052110;28;20064;-57
2021/06/09 12:47:51;;;;;;;12.70;11.50;;;25.40;53.90;;;;;;5041685;28;20053;-51
2021/06/09 12:50:24;;;;;;;13.05;11.63;;;25.40;53.90;;;;;;5055061;28;20448;-52
2021/06/09 12:52:51;;;;;;;13.38;12.07;;;25.40;54.00;;;;;;5056086;28;20080;-53
2021/06/09 12:55:30;;;;;;;13.93;12.57;;;25.40;54.00;;;;;;5054811;28;20103;-56
2021/06/09 12:58:02;;;;;;;12.10;11.00;;;25.40;54.00;;;;;;5054486;28;20068;-54
2021/06/09 13:00:46;;;;;;;13.00;11.63;;;25.40;54.00;;;;;;5054586;28;20037;-56
2021/06/09 13:03:29;;;;;;;13.30;11.93;;;25.40;54.00;;;;;;5051931;28;20060;-55
2021/06/09 13:06:05;;;;;;;13.13;11.82;;;25.40;54.00;;;;;;5040401;28;20133;-50